sensor_id;sensor_type;location;lat;lon;timestamp;temperature;humidity
14192;DHT22;7177;48.572;7.838;2023-12-20T00:01:29;4.90;99.90
14192;DHT22;7177;48.572;7.838;2023-12-20T00:03:54;4.90;99.90
14192;DHT22;7177;48.572;7.838;2023-12-20T00:06:20;4.90;99.90
14192;DHT22;7177;48.572;7.838;2023-12-20T00:08:45;4.90;99.90
14192;DHT22;7177;48.572;7.838;2023-12-20T00:11:11;4.90;99.90
14192;DHT22;7177;48.572;7.838;2023-12-20T00:13:36;4.90;99.90
14192;DHT22;7177;48.572;7.838;2023-12-20T00:16:02;4.90;99.90
14192;DHT22;7177;48.572;7.838;2023-12-20T00:18:27;4.90;99.90
14192;DHT22;7177;48.572;7.838;2023-12-20T00:20:53;4.90;99.90
14192;DHT22;7177;48.572;7.838;2023-12-20T00:23:19;4.90;99.90
14192;DHT22;7177;48.572;7.838;2023-12-20T00:25:45;4.90;99.90
14192;DHT22;7177;48.572;7.838;2023-12-20T00:28:10;4.90;99.90
14192;DHT22;7177;48.572;7.838;2023-12-20T00:30:36;4.90;99.90
14192;DHT22;7177;48.572;7.838;2023-12-20T00:33:01;4.90;99.90
14192;DHT22;7177;48.572;7.838;2023-12-20T00:35:27;4.90;99.90
14192;DHT22;7177;48.572;7.838;2023-12-20T00:37:53;4.90;99.90
14192;DHT22;7177;48.572;7.838;2023-12-20T00:40:18;4.90;99.90
14192;DHT22;7177;48.572;7.838;2023-12-20T00:42:44;5.00;99.90
14192;DHT22;7177;48.572;7.838;2023-12-20T00:45:12;5.00;99.90
14192;DHT22;7177;48.572;7.838;2023-12-20T00:47:37;5.00;99.90
14192;DHT22;7177;48.572;7.838;2023-12-20T00:50:03;5.00;99.90
14192;DHT22;7177;48.572;7.838;2023-12-20T00:52:29;5.00;99.90
14192;DHT22;7177;48.572;7.838;2023-12-20T00:54:54;5.00;99.90
14192;DHT22;7177;48.572;7.838;2023-12-20T00:57:20;5.00;99.90
14192;DHT22;7177;48.572;7.838;2023-12-20T00:59:45;4.90;99.90
14192;DHT22;7177;48.572;7.838;2023-12-20T01:02:11;5.00;99.90
14192;DHT22;7177;48.572;7.838;2023-12-20T01:04:36;5.00;99.90
14192;DHT22;7177;48.572;7.838;2023-12-20T01:07:02;5.00;99.90
14192;DHT22;7177;48.572;7.838;2023-12-20T01:09:27;5.00;99.90
14192;DHT22;7177;48.572;7.838;2023-12-20T01:11:53;5.00;99.90
14192;DHT22;7177;48.572;7.838;2023-12-20T01:14:19;5.00;99.90
14192;DHT22;7177;48.572;7.838;2023-12-20T01:16:44;5.00;99.90
14192;DHT22;7177;48.572;7.838;2023-12-20T01:19:10;5.00;99.90
14192;DHT22;7177;48.572;7.838;2023-12-20T01:21:36;5.00;99.90
14192;DHT22;7177;48.572;7.838;2023-12-20T01:24:01;5.00;99.90
14192;DHT22;7177;48.572;7.838;2023-12-20T01:26:27;5.10;99.90
14192;DHT22;7177;48.572;7.838;2023-12-20T01:28:53;5.00;99.90
14192;DHT22;7177;48.572;7.838;2023-12-20T01:31:19;5.00;99.90
14192;DHT22;7177;48.572;7.838;2023-12-20T01:33:44;5.00;99.90
14192;DHT22;7177;48.572;7.838;2023-12-20T01:36:10;5.10;99.90
14192;DHT22;7177;48.572;7.838;2023-12-20T01:38:36;5.10;99.90
14192;DHT22;7177;48.572;7.838;2023-12-20T01:41:02;5.00;99.90
14192;DHT22;7177;48.572;7.838;2023-12-20T01:43:28;5.10;99.90
14192;DHT22;7177;48.572;7.838;2023-12-20T01:45:56;5.00;99.90
14192;DHT22;7177;48.572;7.838;2023-12-20T01:48:22;5.10;99.90
14192;DHT22;7177;48.572;7.838;2023-12-20T01:50:49;5.00;99.90
14192;DHT22;7177;48.572;7.838;2023-12-20T01:53:14;5.00;99.90
14192;DHT22;7177;48.572;7.838;2023-12-20T01:55:41;5.00;99.90
14192;DHT22;7177;48.572;7.838;2023-12-20T01:58:11;5.00;99.90
14192;DHT22;7177;48.572;7.838;2023-12-20T02:00:37;5.10;99.90
14192;DHT22;7177;48.572;7.838;2023-12-20T02:03:03;5.10;99.90
14192;DHT22;7177;48.572;7.838;2023-12-20T02:05:33;5.10;99.90
14192;DHT22;7177;48.572;7.838;2023-12-20T02:07:59;5.10;99.90
14192;DHT22;7177;48.572;7.838;2023-12-20T02:10:25;5.10;99.90
14192;DHT22;7177;48.572;7.838;2023-12-20T02:12:50;5.10;99.90
14192;DHT22;7177;48.572;7.838;2023-12-20T02:15:16;5.10;99.90
14192;DHT22;7177;48.572;7.838;2023-12-20T02:17:42;5.10;99.90
14192;DHT22;7177;48.572;7.838;2023-12-20T02:20:09;5.10;99.90
14192;DHT22;7177;48.572;7.838;2023-12-20T02:22:35;5.10;99.90
14192;DHT22;7177;48.572;7.838;2023-12-20T02:25:00;5.10;99.90
14192;DHT22;7177;48.572;7.838;2023-12-20T02:27:26;5.10;99.90
14192;DHT22;7177;48.572;7.838;2023-12-20T02:29:52;5.10;99.90
14192;DHT22;7177;48.572;7.838;2023-12-20T02:32:18;5.10;99.90
14192;DHT22;7177;48.572;7.838;2023-12-20T02:37:12;5.20;99.90
14192;DHT22;7177;48.572;7.838;2023-12-20T02:39:38;5.20;99.90
14192;DHT22;7177;48.572;7.838;2023-12-20T02:42:03;5.20;99.90
14192;DHT22;7177;48.572;7.838;2023-12-20T02:44:29;5.20;99.90
14192;DHT22;7177;48.572;7.838;2023-12-20T02:46:54;5.20;99.90
14192;DHT22;7177;48.572;7.838;2023-12-20T02:49:20;5.20;99.90
14192;DHT22;7177;48.572;7.838;2023-12-20T02:51:45;5.20;99.90
14192;DHT22;7177;48.572;7.838;2023-12-20T02:54:11;5.20;99.90
14192;DHT22;7177;48.572;7.838;2023-12-20T02:56:37;5.20;99.90
14192;DHT22;7177;48.572;7.838;2023-12-20T02:59:02;5.20;99.90
14192;DHT22;7177;48.572;7.838;2023-12-20T03:01:30;5.30;99.90
14192;DHT22;7177;48.572;7.838;2023-12-20T03:03:56;5.30;99.90
14192;DHT22;7177;48.572;7.838;2023-12-20T03:06:21;5.30;99.90
14192;DHT22;7177;48.572;7.838;2023-12-20T03:08:47;5.30;99.90
14192;DHT22;7177;48.572;7.838;2023-12-20T03:11:12;5.30;99.90
14192;DHT22;7177;48.572;7.838;2023-12-20T03:13:38;5.30;99.90
14192;DHT22;7177;48.572;7.838;2023-12-20T03:16:10;5.30;99.90
14192;DHT22;7177;48.572;7.838;2023-12-20T03:18:36;5.30;99.90
14192;DHT22;7177;48.572;7.838;2023-12-20T03:21:02;5.30;99.90
14192;DHT22;7177;48.572;7.838;2023-12-20T03:23:27;5.30;99.90
14192;DHT22;7177;48.572;7.838;2023-12-20T03:25:53;5.30;99.90
14192;DHT22;7177;48.572;7.838;2023-12-20T03:28:18;5.30;99.90
14192;DHT22;7177;48.572;7.838;2023-12-20T03:30:44;5.30;99.90
14192;DHT22;7177;48.572;7.838;2023-12-20T03:33:10;5.30;99.90
14192;DHT22;7177;48.572;7.838;2023-12-20T03:35:35;5.30;99.90
14192;DHT22;7177;48.572;7.838;2023-12-20T03:38:01;5.40;99.90
14192;DHT22;7177;48.572;7.838;2023-12-20T03:40:27;5.40;99.90
14192;DHT22;7177;48.572;7.838;2023-12-20T03:42:52;5.40;99.90
14192;DHT22;7177;48.572;7.838;2023-12-20T03:45:18;5.40;99.90
14192;DHT22;7177;48.572;7.838;2023-12-20T03:47:43;5.40;99.90
14192;DHT22;7177;48.572;7.838;2023-12-20T03:50:09;5.40;99.90
14192;DHT22;7177;48.572;7.838;2023-12-20T03:52:34;5.40;99.90
14192;DHT22;7177;48.572;7.838;2023-12-20T03:55:00;5.40;99.90
14192;DHT22;7177;48.572;7.838;2023-12-20T03:57:25;5.40;99.90
14192;DHT22;7177;48.572;7.838;2023-12-20T03:59:51;5.40;99.90
14192;DHT22;7177;48.572;7.838;2023-12-20T04:02:16;5.40;99.90
14192;DHT22;7177;48.572;7.838;2023-12-20T04:04:43;5.40;99.90
14192;DHT22;7177;48.572;7.838;2023-12-20T04:07:08;5.40;99.90
14192;DHT22;7177;48.572;7.838;2023-12-20T04:09:34;5.40;99.90
14192;DHT22;7177;48.572;7.838;2023-12-20T04:11:59;5.40;99.90
14192;DHT22;7177;48.572;7.838;2023-12-20T04:14:25;5.40;99.90
14192;DHT22;7177;48.572;7.838;2023-12-20T04:16:51;5.50;99.90
14192;DHT22;7177;48.572;7.838;2023-12-20T04:19:16;5.50;99.90
14192;DHT22;7177;48.572;7.838;2023-12-20T04:21:41;5.50;99.90
14192;DHT22;7177;48.572;7.838;2023-12-20T04:24:07;5.40;99.90
14192;DHT22;7177;48.572;7.838;2023-12-20T04:26:33;5.40;99.90
14192;DHT22;7177;48.572;7.838;2023-12-20T04:28:59;5.50;99.90
14192;DHT22;7177;48.572;7.838;2023-12-20T04:31:24;5.50;99.90
14192;DHT22;7177;48.572;7.838;2023-12-20T04:33:50;5.50;99.90
14192;DHT22;7177;48.572;7.838;2023-12-20T04:36:15;5.50;99.90
14192;DHT22;7177;48.572;7.838;2023-12-20T04:38:41;5.50;99.90
14192;DHT22;7177;48.572;7.838;2023-12-20T04:41:06;5.50;99.90
14192;DHT22;7177;48.572;7.838;2023-12-20T04:43:32;5.50;99.90
14192;DHT22;7177;48.572;7.838;2023-12-20T04:45:57;5.50;99.90
14192;DHT22;7177;48.572;7.838;2023-12-20T04:48:23;5.50;99.90
14192;DHT22;7177;48.572;7.838;2023-12-20T04:50:48;5.50;99.90
14192;DHT22;7177;48.572;7.838;2023-12-20T04:53:14;5.50;99.90
14192;DHT22;7177;48.572;7.838;2023-12-20T04:55:39;5.50;99.90
14192;DHT22;7177;48.572;7.838;2023-12-20T04:58:05;5.50;99.90
14192;DHT22;7177;48.572;7.838;2023-12-20T05:00:30;5.60;99.90
14192;DHT22;7177;48.572;7.838;2023-12-20T05:02:56;5.50;99.90
14192;DHT22;7177;48.572;7.838;2023-12-20T05:05:22;5.50;99.90
14192;DHT22;7177;48.572;7.838;2023-12-20T05:07:47;5.60;99.90
14192;DHT22;7177;48.572;7.838;2023-12-20T05:10:13;5.60;99.90
14192;DHT22;7177;48.572;7.838;2023-12-20T05:12:38;5.60;99.90
14192;DHT22;7177;48.572;7.838;2023-12-20T05:15:06;5.60;99.90
14192;DHT22;7177;48.572;7.838;2023-12-20T05:17:32;5.80;99.90
14192;DHT22;7177;48.572;7.838;2023-12-20T05:19:57;6.10;99.90
14192;DHT22;7177;48.572;7.838;2023-12-20T05:22:23;6.30;99.90
14192;DHT22;7177;48.572;7.838;2023-12-20T05:24:48;6.40;99.90
14192;DHT22;7177;48.572;7.838;2023-12-20T05:27:14;6.50;99.90
14192;DHT22;7177;48.572;7.838;2023-12-20T05:29:40;6.40;99.90
14192;DHT22;7177;48.572;7.838;2023-12-20T05:32:05;6.30;99.90
14192;DHT22;7177;48.572;7.838;2023-12-20T05:34:31;6.20;99.90
14192;DHT22;7177;48.572;7.838;2023-12-20T05:36:58;6.10;99.90
14192;DHT22;7177;48.572;7.838;2023-12-20T05:39:23;6.00;99.90
14192;DHT22;7177;48.572;7.838;2023-12-20T05:41:49;6.00;99.90
14192;DHT22;7177;48.572;7.838;2023-12-20T05:44:14;6.00;99.90
14192;DHT22;7177;48.572;7.838;2023-12-20T05:46:40;6.00;99.90
14192;DHT22;7177;48.572;7.838;2023-12-20T05:49:06;5.90;99.90
14192;DHT22;7177;48.572;7.838;2023-12-20T05:51:32;5.90;99.90
14192;DHT22;7177;48.572;7.838;2023-12-20T05:53:58;5.90;99.90
14192;DHT22;7177;48.572;7.838;2023-12-20T05:56:23;5.90;99.90
14192;DHT22;7177;48.572;7.838;2023-12-20T05:58:49;5.80;99.90
14192;DHT22;7177;48.572;7.838;2023-12-20T06:01:15;5.80;99.90
14192;DHT22;7177;48.572;7.838;2023-12-20T06:03:43;5.80;99.90
14192;DHT22;7177;48.572;7.838;2023-12-20T06:06:09;5.80;99.90
14192;DHT22;7177;48.572;7.838;2023-12-20T06:08:36;5.80;99.90
14192;DHT22;7177;48.572;7.838;2023-12-20T06:11:01;5.80;99.90
14192;DHT22;7177;48.572;7.838;2023-12-20T06:13:27;5.80;99.90
14192;DHT22;7177;48.572;7.838;2023-12-20T06:15:54;5.80;99.90
14192;DHT22;7177;48.572;7.838;2023-12-20T06:18:20;5.80;99.90
14192;DHT22;7177;48.572;7.838;2023-12-20T06:20:45;5.80;99.90
14192;DHT22;7177;48.572;7.838;2023-12-20T06:23:11;5.80;99.90
14192;DHT22;7177;48.572;7.838;2023-12-20T06:25:36;5.90;99.90
14192;DHT22;7177;48.572;7.838;2023-12-20T06:28:02;5.90;99.90
14192;DHT22;7177;48.572;7.838;2023-12-20T06:30:28;5.90;99.90
14192;DHT22;7177;48.572;7.838;2023-12-20T06:32:54;5.90;99.90
14192;DHT22;7177;48.572;7.838;2023-12-20T06:35:20;5.90;99.90
14192;DHT22;7177;48.572;7.838;2023-12-20T06:37:45;5.80;99.90
14192;DHT22;7177;48.572;7.838;2023-12-20T06:40:11;5.90;99.90
14192;DHT22;7177;48.572;7.838;2023-12-20T06:42:37;5.90;99.90
14192;DHT22;7177;48.572;7.838;2023-12-20T06:45:03;5.90;99.90
14192;DHT22;7177;48.572;7.838;2023-12-20T06:47:29;5.80;99.90
14192;DHT22;7177;48.572;7.838;2023-12-20T06:49:54;5.90;99.90
14192;DHT22;7177;48.572;7.838;2023-12-20T06:52:20;5.90;99.90
14192;DHT22;7177;48.572;7.838;2023-12-20T06:54:45;5.90;99.90
14192;DHT22;7177;48.572;7.838;2023-12-20T06:57:11;5.90;99.90
14192;DHT22;7177;48.572;7.838;2023-12-20T06:59:40;5.90;99.90
14192;DHT22;7177;48.572;7.838;2023-12-20T07:02:06;5.90;99.90
14192;DHT22;7177;48.572;7.838;2023-12-20T07:04:32;5.90;99.90
14192;DHT22;7177;48.572;7.838;2023-12-20T07:06:57;5.90;99.90
14192;DHT22;7177;48.572;7.838;2023-12-20T07:09:26;5.90;99.90
14192;DHT22;7177;48.572;7.838;2023-12-20T07:11:52;6.10;99.90
14192;DHT22;7177;48.572;7.838;2023-12-20T07:14:17;6.20;99.90
14192;DHT22;7177;48.572;7.838;2023-12-20T07:16:43;6.20;99.90
14192;DHT22;7177;48.572;7.838;2023-12-20T07:19:08;6.20;99.90
14192;DHT22;7177;48.572;7.838;2023-12-20T07:21:34;6.20;99.90
14192;DHT22;7177;48.572;7.838;2023-12-20T07:23:59;6.20;99.90
14192;DHT22;7177;48.572;7.838;2023-12-20T07:26:25;6.20;99.90
14192;DHT22;7177;48.572;7.838;2023-12-20T07:28:50;6.20;99.90
14192;DHT22;7177;48.572;7.838;2023-12-20T07:31:16;6.20;99.90
14192;DHT22;7177;48.572;7.838;2023-12-20T07:33:42;6.50;99.90
14192;DHT22;7177;48.572;7.838;2023-12-20T07:36:07;6.40;99.90
14192;DHT22;7177;48.572;7.838;2023-12-20T07:38:33;6.40;99.90
14192;DHT22;7177;48.572;7.838;2023-12-20T07:40:59;6.30;99.90
14192;DHT22;7177;48.572;7.838;2023-12-20T07:43:24;6.30;99.90
14192;DHT22;7177;48.572;7.838;2023-12-20T07:45:50;6.30;99.90
14192;DHT22;7177;48.572;7.838;2023-12-20T07:48:15;6.20;99.90
14192;DHT22;7177;48.572;7.838;2023-12-20T07:50:41;6.30;99.90
14192;DHT22;7177;48.572;7.838;2023-12-20T07:53:07;6.30;99.90
14192;DHT22;7177;48.572;7.838;2023-12-20T07:55:33;6.30;99.90
14192;DHT22;7177;48.572;7.838;2023-12-20T07:58:00;6.20;99.90
14192;DHT22;7177;48.572;7.838;2023-12-20T08:00:25;6.20;99.90
14192;DHT22;7177;48.572;7.838;2023-12-20T08:02:51;6.10;99.90
14192;DHT22;7177;48.572;7.838;2023-12-20T08:05:16;6.10;99.90
14192;DHT22;7177;48.572;7.838;2023-12-20T08:07:42;6.10;99.90
14192;DHT22;7177;48.572;7.838;2023-12-20T08:10:08;6.10;99.90
14192;DHT22;7177;48.572;7.838;2023-12-20T08:12:33;6.00;99.90
14192;DHT22;7177;48.572;7.838;2023-12-20T08:14:59;6.00;99.90
14192;DHT22;7177;48.572;7.838;2023-12-20T08:17:25;6.00;99.90
14192;DHT22;7177;48.572;7.838;2023-12-20T08:19:51;6.00;99.90
14192;DHT22;7177;48.572;7.838;2023-12-20T08:22:17;6.00;99.90
14192;DHT22;7177;48.572;7.838;2023-12-20T08:24:42;6.00;99.90
14192;DHT22;7177;48.572;7.838;2023-12-20T08:27:08;6.00;99.90
14192;DHT22;7177;48.572;7.838;2023-12-20T08:29:35;6.00;99.90
14192;DHT22;7177;48.572;7.838;2023-12-20T08:32:00;6.10;99.90
14192;DHT22;7177;48.572;7.838;2023-12-20T08:34:26;6.10;99.90
14192;DHT22;7177;48.572;7.838;2023-12-20T08:36:51;6.10;99.90
14192;DHT22;7177;48.572;7.838;2023-12-20T08:39:17;6.10;99.90
14192;DHT22;7177;48.572;7.838;2023-12-20T08:41:43;6.10;99.90
14192;DHT22;7177;48.572;7.838;2023-12-20T08:44:09;6.20;99.90
14192;DHT22;7177;48.572;7.838;2023-12-20T08:46:35;6.20;99.90
14192;DHT22;7177;48.572;7.838;2023-12-20T08:49:01;6.20;99.90
14192;DHT22;7177;48.572;7.838;2023-12-20T08:51:26;6.20;99.90
14192;DHT22;7177;48.572;7.838;2023-12-20T08:53:52;6.20;99.90
14192;DHT22;7177;48.572;7.838;2023-12-20T08:56:17;6.60;99.90
14192;DHT22;7177;48.572;7.838;2023-12-20T08:58:44;7.00;99.90
14192;DHT22;7177;48.572;7.838;2023-12-20T09:01:09;7.20;99.90
14192;DHT22;7177;48.572;7.838;2023-12-20T09:03:35;7.50;99.90
14192;DHT22;7177;48.572;7.838;2023-12-20T09:06:00;8.50;99.90
14192;DHT22;7177;48.572;7.838;2023-12-20T09:08:26;10.10;99.90
14192;DHT22;7177;48.572;7.838;2023-12-20T09:10:51;11.70;99.90
14192;DHT22;7177;48.572;7.838;2023-12-20T09:13:17;13.00;99.90
14192;DHT22;7177;48.572;7.838;2023-12-20T09:15:42;13.70;99.90
14192;DHT22;7177;48.572;7.838;2023-12-20T09:18:08;14.10;99.90
14192;DHT22;7177;48.572;7.838;2023-12-20T09:20:35;14.40;99.90
14192;DHT22;7177;48.572;7.838;2023-12-20T09:23:00;14.20;99.90
14192;DHT22;7177;48.572;7.838;2023-12-20T09:25:26;14.20;99.90
14192;DHT22;7177;48.572;7.838;2023-12-20T09:27:54;14.00;99.90
14192;DHT22;7177;48.572;7.838;2023-12-20T09:30:20;14.00;99.90
14192;DHT22;7177;48.572;7.838;2023-12-20T09:32:46;14.00;99.90
14192;DHT22;7177;48.572;7.838;2023-12-20T09:35:11;14.10;99.90
14192;DHT22;7177;48.572;7.838;2023-12-20T09:37:37;13.80;99.90
14192;DHT22;7177;48.572;7.838;2023-12-20T09:40:03;13.20;99.90
14192;DHT22;7177;48.572;7.838;2023-12-20T09:42:35;12.40;99.90
14192;DHT22;7177;48.572;7.838;2023-12-20T09:45:04;12.40;99.90
14192;DHT22;7177;48.572;7.838;2023-12-20T09:47:32;12.60;99.90
14192;DHT22;7177;48.572;7.838;2023-12-20T09:49:58;12.60;99.90
14192;DHT22;7177;48.572;7.838;2023-12-20T09:52:24;12.40;99.90
14192;DHT22;7177;48.572;7.838;2023-12-20T09:54:50;13.00;99.90
14192;DHT22;7177;48.572;7.838;2023-12-20T09:57:17;13.80;99.90
14192;DHT22;7177;48.572;7.838;2023-12-20T09:59:43;14.00;99.90
14192;DHT22;7177;48.572;7.838;2023-12-20T10:02:12;14.40;99.90
14192;DHT22;7177;48.572;7.838;2023-12-20T10:04:46;15.00;99.90
14192;DHT22;7177;48.572;7.838;2023-12-20T10:07:11;14.20;99.90
14192;DHT22;7177;48.572;7.838;2023-12-20T10:09:38;13.50;99.90
14192;DHT22;7177;48.572;7.838;2023-12-20T10:12:04;13.40;99.90
14192;DHT22;7177;48.572;7.838;2023-12-20T10:14:32;12.90;99.90
14192;DHT22;7177;48.572;7.838;2023-12-20T10:17:03;12.20;99.90
14192;DHT22;7177;48.572;7.838;2023-12-20T10:19:29;11.60;99.90
14192;DHT22;7177;48.572;7.838;2023-12-20T10:21:55;11.20;99.90
14192;DHT22;7177;48.572;7.838;2023-12-20T10:24:20;10.80;99.90
14192;DHT22;7177;48.572;7.838;2023-12-20T10:26:46;10.10;99.90
14192;DHT22;7177;48.572;7.838;2023-12-20T10:29:11;9.70;99.90
14192;DHT22;7177;48.572;7.838;2023-12-20T10:31:37;9.30;99.90
14192;DHT22;7177;48.572;7.838;2023-12-20T10:34:07;9.10;99.90
14192;DHT22;7177;48.572;7.838;2023-12-20T10:36:33;8.80;99.90
14192;DHT22;7177;48.572;7.838;2023-12-20T10:38:59;8.60;99.90
14192;DHT22;7177;48.572;7.838;2023-12-20T10:41:29;8.50;99.90
14192;DHT22;7177;48.572;7.838;2023-12-20T10:44:02;8.40;99.90
14192;DHT22;7177;48.572;7.838;2023-12-20T10:46:29;8.40;99.90
14192;DHT22;7177;48.572;7.838;2023-12-20T10:48:56;8.40;99.90
14192;DHT22;7177;48.572;7.838;2023-12-20T10:51:22;8.40;99.90
14192;DHT22;7177;48.572;7.838;2023-12-20T10:53:50;8.40;99.90
14192;DHT22;7177;48.572;7.838;2023-12-20T10:56:17;8.40;99.90
14192;DHT22;7177;48.572;7.838;2023-12-20T10:58:49;8.40;99.90
14192;DHT22;7177;48.572;7.838;2023-12-20T11:01:17;8.40;99.90
14192;DHT22;7177;48.572;7.838;2023-12-20T11:03:49;8.50;99.90
14192;DHT22;7177;48.572;7.838;2023-12-20T11:06:20;8.50;99.90
14192;DHT22;7177;48.572;7.838;2023-12-20T11:08:53;8.40;99.90
14192;DHT22;7177;48.572;7.838;2023-12-20T11:11:35;8.30;99.90
14192;DHT22;7177;48.572;7.838;2023-12-20T11:14:06;8.50;99.90
14192;DHT22;7177;48.572;7.838;2023-12-20T11:16:41;8.60;99.90
14192;DHT22;7177;48.572;7.838;2023-12-20T11:19:07;8.70;99.90
14192;DHT22;7177;48.572;7.838;2023-12-20T11:21:32;8.90;99.90
14192;DHT22;7177;48.572;7.838;2023-12-20T11:23:59;9.10;99.90
14192;DHT22;7177;48.572;7.838;2023-12-20T11:26:29;9.50;99.90
14192;DHT22;7177;48.572;7.838;2023-12-20T11:31:55;9.90;99.90
14192;DHT22;7177;48.572;7.838;2023-12-20T11:34:21;9.70;99.90
14192;DHT22;7177;48.572;7.838;2023-12-20T11:36:46;9.70;99.90
14192;DHT22;7177;48.572;7.838;2023-12-20T11:39:20;9.70;99.90
14192;DHT22;7177;48.572;7.838;2023-12-20T11:41:46;9.70;99.90
14192;DHT22;7177;48.572;7.838;2023-12-20T11:44:12;9.70;99.90
14192;DHT22;7177;48.572;7.838;2023-12-20T11:46:37;9.70;99.90
14192;DHT22;7177;48.572;7.838;2023-12-20T11:49:03;9.70;99.90
14192;DHT22;7177;48.572;7.838;2023-12-20T11:51:28;9.80;99.90
14192;DHT22;7177;48.572;7.838;2023-12-20T11:53:54;9.90;99.90
14192;DHT22;7177;48.572;7.838;2023-12-20T11:56:19;9.80;99.90
14192;DHT22;7177;48.572;7.838;2023-12-20T11:58:45;9.60;99.90
14192;DHT22;7177;48.572;7.838;2023-12-20T12:01:12;9.10;99.90
14192;DHT22;7177;48.572;7.838;2023-12-20T12:03:38;9.00;99.90
14192;DHT22;7177;48.572;7.838;2023-12-20T12:06:04;8.80;99.90
14192;DHT22;7177;48.572;7.838;2023-12-20T12:08:30;8.70;99.90
14192;DHT22;7177;48.572;7.838;2023-12-20T12:10:55;8.70;99.90
14192;DHT22;7177;48.572;7.838;2023-12-20T12:13:21;8.60;99.90
14192;DHT22;7177;48.572;7.838;2023-12-20T12:15:48;8.40;99.90
14192;DHT22;7177;48.572;7.838;2023-12-20T12:18:17;8.30;99.90
14192;DHT22;7177;48.572;7.838;2023-12-20T12:20:43;8.30;99.90
14192;DHT22;7177;48.572;7.838;2023-12-20T12:23:08;8.20;99.90
14192;DHT22;7177;48.572;7.838;2023-12-20T12:25:37;8.20;99.90
14192;DHT22;7177;48.572;7.838;2023-12-20T12:28:03;8.10;99.90
14192;DHT22;7177;48.572;7.838;2023-12-20T12:30:29;8.10;99.90
14192;DHT22;7177;48.572;7.838;2023-12-20T12:32:56;8.10;99.90
14192;DHT22;7177;48.572;7.838;2023-12-20T12:35:21;8.20;99.90
14192;DHT22;7177;48.572;7.838;2023-12-20T12:37:47;8.20;99.90
14192;DHT22;7177;48.572;7.838;2023-12-20T12:40:14;8.20;99.90
14192;DHT22;7177;48.572;7.838;2023-12-20T12:42:41;8.20;99.90
14192;DHT22;7177;48.572;7.838;2023-12-20T12:45:07;8.30;99.90
14192;DHT22;7177;48.572;7.838;2023-12-20T12:47:34;8.30;99.90
14192;DHT22;7177;48.572;7.838;2023-12-20T12:50:00;8.40;99.90
14192;DHT22;7177;48.572;7.838;2023-12-20T12:52:25;8.30;99.90
14192;DHT22;7177;48.572;7.838;2023-12-20T12:54:52;8.40;99.90
14192;DHT22;7177;48.572;7.838;2023-12-20T12:57:18;8.30;99.90
14192;DHT22;7177;48.572;7.838;2023-12-20T12:59:45;8.20;99.90
14192;DHT22;7177;48.572;7.838;2023-12-20T13:02:14;8.10;99.90
14192;DHT22;7177;48.572;7.838;2023-12-20T13:04:43;8.00;99.90
14192;DHT22;7177;48.572;7.838;2023-12-20T13:07:09;8.10;99.90
14192;DHT22;7177;48.572;7.838;2023-12-20T13:09:38;8.00;99.90
14192;DHT22;7177;48.572;7.838;2023-12-20T13:12:05;7.90;99.90
14192;DHT22;7177;48.572;7.838;2023-12-20T13:14:35;7.90;99.90
14192;DHT22;7177;48.572;7.838;2023-12-20T13:17:03;7.90;99.90
14192;DHT22;7177;48.572;7.838;2023-12-20T13:19:29;7.90;99.90
14192;DHT22;7177;48.572;7.838;2023-12-20T13:21:55;7.90;99.90
14192;DHT22;7177;48.572;7.838;2023-12-20T13:24:21;7.80;99.90
14192;DHT22;7177;48.572;7.838;2023-12-20T13:26:46;7.80;99.90
14192;DHT22;7177;48.572;7.838;2023-12-20T13:29:12;7.80;99.90
14192;DHT22;7177;48.572;7.838;2023-12-20T13:31:37;7.80;99.90
14192;DHT22;7177;48.572;7.838;2023-12-20T13:34:03;7.80;99.90
14192;DHT22;7177;48.572;7.838;2023-12-20T13:36:29;7.80;99.90
14192;DHT22;7177;48.572;7.838;2023-12-20T13:38:54;7.80;99.90
14192;DHT22;7177;48.572;7.838;2023-12-20T13:41:20;7.80;99.90
14192;DHT22;7177;48.572;7.838;2023-12-20T13:43:46;7.70;99.90
14192;DHT22;7177;48.572;7.838;2023-12-20T13:46:11;7.70;99.90
14192;DHT22;7177;48.572;7.838;2023-12-20T13:48:37;7.70;99.90
14192;DHT22;7177;48.572;7.838;2023-12-20T13:51:03;7.70;99.90
14192;DHT22;7177;48.572;7.838;2023-12-20T13:53:29;7.70;99.90
14192;DHT22;7177;48.572;7.838;2023-12-20T13:55:54;7.70;99.90
14192;DHT22;7177;48.572;7.838;2023-12-20T13:58:20;7.70;99.90
14192;DHT22;7177;48.572;7.838;2023-12-20T14:00:45;7.70;99.90
14192;DHT22;7177;48.572;7.838;2023-12-20T14:03:11;7.70;99.90
14192;DHT22;7177;48.572;7.838;2023-12-20T14:05:36;7.60;99.90
14192;DHT22;7177;48.572;7.838;2023-12-20T14:08:02;7.70;99.90
14192;DHT22;7177;48.572;7.838;2023-12-20T14:10:28;7.60;99.90
14192;DHT22;7177;48.572;7.838;2023-12-20T14:12:54;7.60;99.90
14192;DHT22;7177;48.572;7.838;2023-12-20T14:15:20;7.60;99.90
14192;DHT22;7177;48.572;7.838;2023-12-20T14:17:46;7.60;99.90
14192;DHT22;7177;48.572;7.838;2023-12-20T14:20:12;7.50;99.90
14192;DHT22;7177;48.572;7.838;2023-12-20T14:22:41;7.60;99.90
14192;DHT22;7177;48.572;7.838;2023-12-20T14:25:13;7.60;99.90
14192;DHT22;7177;48.572;7.838;2023-12-20T14:27:40;7.60;99.90
14192;DHT22;7177;48.572;7.838;2023-12-20T14:30:06;7.60;99.90
14192;DHT22;7177;48.572;7.838;2023-12-20T14:32:34;7.60;99.90
14192;DHT22;7177;48.572;7.838;2023-12-20T14:34:59;7.60;99.90
14192;DHT22;7177;48.572;7.838;2023-12-20T14:37:25;7.60;99.90
14192;DHT22;7177;48.572;7.838;2023-12-20T14:39:50;7.40;99.90
14192;DHT22;7177;48.572;7.838;2023-12-20T14:42:16;7.30;99.90
14192;DHT22;7177;48.572;7.838;2023-12-20T14:44:41;7.30;99.90
14192;DHT22;7177;48.572;7.838;2023-12-20T14:47:07;7.20;99.90
14192;DHT22;7177;48.572;7.838;2023-12-20T14:49:33;7.20;99.90
14192;DHT22;7177;48.572;7.838;2023-12-20T14:51:58;7.20;99.90
14192;DHT22;7177;48.572;7.838;2023-12-20T14:54:25;7.10;99.90
14192;DHT22;7177;48.572;7.838;2023-12-20T14:56:51;7.10;99.90
14192;DHT22;7177;48.572;7.838;2023-12-20T14:59:16;7.10;99.90
14192;DHT22;7177;48.572;7.838;2023-12-20T15:01:43;7.10;99.90
14192;DHT22;7177;48.572;7.838;2023-12-20T15:04:09;7.00;99.90
14192;DHT22;7177;48.572;7.838;2023-12-20T15:06:35;7.10;99.90
14192;DHT22;7177;48.572;7.838;2023-12-20T15:09:00;7.00;99.90
14192;DHT22;7177;48.572;7.838;2023-12-20T15:11:27;7.00;99.90
14192;DHT22;7177;48.572;7.838;2023-12-20T15:13:53;7.00;99.90
14192;DHT22;7177;48.572;7.838;2023-12-20T15:16:23;7.00;99.90
14192;DHT22;7177;48.572;7.838;2023-12-20T15:18:49;7.00;99.90
14192;DHT22;7177;48.572;7.838;2023-12-20T15:21:16;6.90;99.90
14192;DHT22;7177;48.572;7.838;2023-12-20T15:23:42;6.90;99.90
14192;DHT22;7177;48.572;7.838;2023-12-20T15:26:18;6.90;99.90
14192;DHT22;7177;48.572;7.838;2023-12-20T15:28:43;6.80;99.90
14192;DHT22;7177;48.572;7.838;2023-12-20T15:31:09;6.80;99.90
14192;DHT22;7177;48.572;7.838;2023-12-20T15:33:34;6.70;99.90
14192;DHT22;7177;48.572;7.838;2023-12-20T15:36:00;6.70;99.90
14192;DHT22;7177;48.572;7.838;2023-12-20T15:38:26;6.60;99.90
14192;DHT22;7177;48.572;7.838;2023-12-20T15:40:51;6.60;99.90
14192;DHT22;7177;48.572;7.838;2023-12-20T15:43:17;6.60;99.90
14192;DHT22;7177;48.572;7.838;2023-12-20T15:45:42;6.60;99.90
14192;DHT22;7177;48.572;7.838;2023-12-20T15:48:07;6.60;99.90
14192;DHT22;7177;48.572;7.838;2023-12-20T15:50:34;6.50;99.90
14192;DHT22;7177;48.572;7.838;2023-12-20T15:53:00;6.40;99.90
14192;DHT22;7177;48.572;7.838;2023-12-20T15:55:26;6.40;99.90
14192;DHT22;7177;48.572;7.838;2023-12-20T15:57:51;6.40;99.90